sensor_id;sensor_type;location;lat;lon;timestamp;temperature;humidity
40638;DHT22;26336;44.696;10.622;2024-01-15T00:00:04;2.50;99.90
40638;DHT22;26336;44.696;10.622;2024-01-15T00:03:14;2.40;99.90
40638;DHT22;26336;44.696;10.622;2024-01-15T00:06:18;2.50;99.90
40638;DHT22;26336;44.696;10.622;2024-01-15T00:09:22;2.60;99.90
40638;DHT22;26336;44.696;10.622;2024-01-15T00:12:26;2.60;99.90
40638;DHT22;26336;44.696;10.622;2024-01-15T00:15:30;2.60;99.90
40638;DHT22;26336;44.696;10.622;2024-01-15T00:18:34;2.70;99.90
40638;DHT22;26336;44.696;10.622;2024-01-15T00:21:38;2.70;99.90
40638;DHT22;26336;44.696;10.622;2024-01-15T00:24:42;2.80;99.90
40638;DHT22;26336;44.696;10.622;2024-01-15T00:27:45;2.70;99.90
40638;DHT22;26336;44.696;10.622;2024-01-15T00:30:49;2.70;99.90
40638;DHT22;26336;44.696;10.622;2024-01-15T00:33:53;2.80;99.90
40638;DHT22;26336;44.696;10.622;2024-01-15T00:36:57;2.60;99.90
40638;DHT22;26336;44.696;10.622;2024-01-15T00:40:01;2.70;99.90
40638;DHT22;26336;44.696;10.622;2024-01-15T00:43:05;2.80;99.90
40638;DHT22;26336;44.696;10.622;2024-01-15T00:46:11;2.80;99.90
40638;DHT22;26336;44.696;10.622;2024-01-15T00:49:15;2.80;99.90
40638;DHT22;26336;44.696;10.622;2024-01-15T00:52:22;2.70;99.90
40638;DHT22;26336;44.696;10.622;2024-01-15T00:55:27;2.80;99.90
40638;DHT22;26336;44.696;10.622;2024-01-15T00:58:31;2.70;99.90
40638;DHT22;26336;44.696;10.622;2024-01-15T01:01:35;2.80;99.90
40638;DHT22;26336;44.696;10.622;2024-01-15T01:04:40;2.70;99.90
40638;DHT22;26336;44.696;10.622;2024-01-15T01:07:44;2.70;99.90
40638;DHT22;26336;44.696;10.622;2024-01-15T01:10:48;2.70;99.90
40638;DHT22;26336;44.696;10.622;2024-01-15T01:13:52;2.70;99.90
40638;DHT22;26336;44.696;10.622;2024-01-15T01:16:56;2.70;99.90
40638;DHT22;26336;44.696;10.622;2024-01-15T01:20:00;2.70;99.90
40638;DHT22;26336;44.696;10.622;2024-01-15T01:23:05;2.70;99.90
40638;DHT22;26336;44.696;10.622;2024-01-15T01:26:09;2.50;99.90
40638;DHT22;26336;44.696;10.622;2024-01-15T01:29:13;2.40;99.90
40638;DHT22;26336;44.696;10.622;2024-01-15T01:32:17;2.50;99.90
40638;DHT22;26336;44.696;10.622;2024-01-15T01:35:21;2.50;99.90
40638;DHT22;26336;44.696;10.622;2024-01-15T01:38:25;2.60;99.90
40638;DHT22;26336;44.696;10.622;2024-01-15T01:41:29;2.70;99.90
40638;DHT22;26336;44.696;10.622;2024-01-15T01:44:33;2.80;99.90
40638;DHT22;26336;44.696;10.622;2024-01-15T01:47:37;2.90;99.90
40638;DHT22;26336;44.696;10.622;2024-01-15T01:50:42;2.90;99.90
40638;DHT22;26336;44.696;10.622;2024-01-15T01:53:53;2.90;99.90
40638;DHT22;26336;44.696;10.622;2024-01-15T01:56:57;3.00;99.90
40638;DHT22;26336;44.696;10.622;2024-01-15T02:00:03;3.00;99.90
40638;DHT22;26336;44.696;10.622;2024-01-15T02:03:16;3.00;99.90
40638;DHT22;26336;44.696;10.622;2024-01-15T02:06:20;3.00;99.90
40638;DHT22;26336;44.696;10.622;2024-01-15T02:09:24;3.00;99.90
40638;DHT22;26336;44.696;10.622;2024-01-15T02:12:28;3.00;99.90
40638;DHT22;26336;44.696;10.622;2024-01-15T02:15:32;3.10;99.90
40638;DHT22;26336;44.696;10.622;2024-01-15T02:18:43;3.10;99.90
40638;DHT22;26336;44.696;10.622;2024-01-15T02:21:47;3.10;99.90
40638;DHT22;26336;44.696;10.622;2024-01-15T02:24:51;3.10;99.90
40638;DHT22;26336;44.696;10.622;2024-01-15T02:27:55;3.10;99.90
40638;DHT22;26336;44.696;10.622;2024-01-15T02:30:59;3.10;99.90
40638;DHT22;26336;44.696;10.622;2024-01-15T02:34:03;3.10;99.90
40638;DHT22;26336;44.696;10.622;2024-01-15T02:37:07;3.10;99.90
40638;DHT22;26336;44.696;10.622;2024-01-15T02:40:11;3.10;99.90
40638;DHT22;26336;44.696;10.622;2024-01-15T02:43:15;3.20;99.90
40638;DHT22;26336;44.696;10.622;2024-01-15T02:46:19;3.10;99.90
40638;DHT22;26336;44.696;10.622;2024-01-15T02:49:23;3.10;99.90
40638;DHT22;26336;44.696;10.622;2024-01-15T02:52:27;3.10;99.90
40638;DHT22;26336;44.696;10.622;2024-01-15T02:55:31;3.10;99.90
40638;DHT22;26336;44.696;10.622;2024-01-15T02:58:35;3.10;99.90
40638;DHT22;26336;44.696;10.622;2024-01-15T03:01:39;3.10;99.90
40638;DHT22;26336;44.696;10.622;2024-01-15T03:04:43;3.00;99.90
40638;DHT22;26336;44.696;10.622;2024-01-15T03:07:47;3.00;99.90
40638;DHT22;26336;44.696;10.622;2024-01-15T03:10:52;3.00;99.90
40638;DHT22;26336;44.696;10.622;2024-01-15T03:13:55;3.00;99.90
40638;DHT22;26336;44.696;10.622;2024-01-15T03:16:59;3.00;99.90
40638;DHT22;26336;44.696;10.622;2024-01-15T03:20:05;3.00;99.90
40638;DHT22;26336;44.696;10.622;2024-01-15T03:23:09;3.00;99.90
40638;DHT22;26336;44.696;10.622;2024-01-15T03:26:12;3.00;99.90
40638;DHT22;26336;44.696;10.622;2024-01-15T03:29:16;3.00;99.90
40638;DHT22;26336;44.696;10.622;2024-01-15T03:32:20;3.00;99.90
40638;DHT22;26336;44.696;10.622;2024-01-15T03:35:24;3.00;99.90
40638;DHT22;26336;44.696;10.622;2024-01-15T03:38:33;3.10;99.90
40638;DHT22;26336;44.696;10.622;2024-01-15T03:41:37;3.00;99.90
40638;DHT22;26336;44.696;10.622;2024-01-15T03:44:41;3.10;99.90
40638;DHT22;26336;44.696;10.622;2024-01-15T03:47:44;3.10;99.90
40638;DHT22;26336;44.696;10.622;2024-01-15T03:50:48;3.10;99.90
40638;DHT22;26336;44.696;10.622;2024-01-15T03:53:53;3.10;99.90
40638;DHT22;26336;44.696;10.622;2024-01-15T03:56:57;3.20;99.90
40638;DHT22;26336;44.696;10.622;2024-01-15T04:00:01;3.20;99.90
40638;DHT22;26336;44.696;10.622;2024-01-15T04:03:05;3.20;99.90
40638;DHT22;26336;44.696;10.622;2024-01-15T04:06:09;3.20;99.90
40638;DHT22;26336;44.696;10.622;2024-01-15T04:09:13;3.30;99.90
40638;DHT22;26336;44.696;10.622;2024-01-15T04:12:17;3.30;99.90
40638;DHT22;26336;44.696;10.622;2024-01-15T04:15:21;3.30;99.90
40638;DHT22;26336;44.696;10.622;2024-01-15T04:18:25;3.30;99.90
40638;DHT22;26336;44.696;10.622;2024-01-15T04:21:29;3.30;99.90
40638;DHT22;26336;44.696;10.622;2024-01-15T04:24:33;3.30;99.90
40638;DHT22;26336;44.696;10.622;2024-01-15T04:27:37;3.40;99.90
40638;DHT22;26336;44.696;10.622;2024-01-15T04:30:40;3.40;99.90
40638;DHT22;26336;44.696;10.622;2024-01-15T04:33:44;3.40;99.90
40638;DHT22;26336;44.696;10.622;2024-01-15T04:36:48;3.50;99.90
40638;DHT22;26336;44.696;10.622;2024-01-15T04:39:52;3.50;99.90
40638;DHT22;26336;44.696;10.622;2024-01-15T04:42:58;3.50;99.90
40638;DHT22;26336;44.696;10.622;2024-01-15T04:46:02;3.40;99.90
40638;DHT22;26336;44.696;10.622;2024-01-15T04:49:07;3.50;99.90
40638;DHT22;26336;44.696;10.622;2024-01-15T04:52:11;3.50;99.90
40638;DHT22;26336;44.696;10.622;2024-01-15T04:55:15;3.50;99.90
40638;DHT22;26336;44.696;10.622;2024-01-15T04:58:18;3.50;99.90
40638;DHT22;26336;44.696;10.622;2024-01-15T05:01:22;3.40;99.90
40638;DHT22;26336;44.696;10.622;2024-01-15T05:04:26;3.40;99.90
40638;DHT22;26336;44.696;10.622;2024-01-15T05:07:30;3.40;99.90
40638;DHT22;26336;44.696;10.622;2024-01-15T05:10:34;3.40;99.90
40638;DHT22;26336;44.696;10.622;2024-01-15T05:13:38;3.40;99.90
40638;DHT22;26336;44.696;10.622;2024-01-15T05:16:49;3.40;99.90
40638;DHT22;26336;44.696;10.622;2024-01-15T05:19:53;3.40;99.90
40638;DHT22;26336;44.696;10.622;2024-01-15T05:22:57;3.40;99.90
40638;DHT22;26336;44.696;10.622;2024-01-15T05:26:01;3.40;99.90
40638;DHT22;26336;44.696;10.622;2024-01-15T05:29:05;3.50;99.90
40638;DHT22;26336;44.696;10.622;2024-01-15T05:32:08;3.50;99.90
40638;DHT22;26336;44.696;10.622;2024-01-15T05:35:13;3.50;99.90
40638;DHT22;26336;44.696;10.622;2024-01-15T05:38:17;3.50;99.90
40638;DHT22;26336;44.696;10.622;2024-01-15T05:41:21;3.50;99.90
40638;DHT22;26336;44.696;10.622;2024-01-15T05:44:25;3.50;99.90
40638;DHT22;26336;44.696;10.622;2024-01-15T05:47:29;3.50;99.90
40638;DHT22;26336;44.696;10.622;2024-01-15T05:50:35;3.50;99.90
40638;DHT22;26336;44.696;10.622;2024-01-15T05:53:39;3.60;99.90
40638;DHT22;26336;44.696;10.622;2024-01-15T05:56:46;3.50;99.90
40638;DHT22;26336;44.696;10.622;2024-01-15T05:59:50;3.50;99.90
40638;DHT22;26336;44.696;10.622;2024-01-15T06:02:54;3.50;99.90
40638;DHT22;26336;44.696;10.622;2024-01-15T06:05:58;3.50;99.90
40638;DHT22;26336;44.696;10.622;2024-01-15T06:09:02;3.50;99.90
40638;DHT22;26336;44.696;10.622;2024-01-15T06:12:09;3.50;99.90
40638;DHT22;26336;44.696;10.622;2024-01-15T06:15:13;3.40;99.90
40638;DHT22;26336;44.696;10.622;2024-01-15T06:18:17;3.40;99.90
40638;DHT22;26336;44.696;10.622;2024-01-15T06:21:21;3.40;99.90
40638;DHT22;26336;44.696;10.622;2024-01-15T06:24:25;3.50;99.90
40638;DHT22;26336;44.696;10.622;2024-01-15T06:27:29;3.50;99.90
40638;DHT22;26336;44.696;10.622;2024-01-15T06:30:33;3.50;99.90
40638;DHT22;26336;44.696;10.622;2024-01-15T06:33:37;3.50;99.90
40638;DHT22;26336;44.696;10.622;2024-01-15T06:36:41;3.50;99.90
40638;DHT22;26336;44.696;10.622;2024-01-15T06:39:45;3.50;99.90
40638;DHT22;26336;44.696;10.622;2024-01-15T06:42:49;3.60;99.90
40638;DHT22;26336;44.696;10.622;2024-01-15T06:45:53;3.60;99.90
40638;DHT22;26336;44.696;10.622;2024-01-15T06:48:57;3.60;99.90
40638;DHT22;26336;44.696;10.622;2024-01-15T06:52:01;3.60;99.90
40638;DHT22;26336;44.696;10.622;2024-01-15T06:55:06;3.60;99.90
40638;DHT22;26336;44.696;10.622;2024-01-15T06:58:10;3.60;99.90
40638;DHT22;26336;44.696;10.622;2024-01-15T07:01:14;3.70;99.90
40638;DHT22;26336;44.696;10.622;2024-01-15T07:04:18;3.70;99.90
40638;DHT22;26336;44.696;10.622;2024-01-15T07:07:22;3.70;99.90
40638;DHT22;26336;44.696;10.622;2024-01-15T07:10:26;3.70;99.90
40638;DHT22;26336;44.696;10.622;2024-01-15T07:13:30;3.70;99.90
40638;DHT22;26336;44.696;10.622;2024-01-15T07:16:35;3.70;99.90
40638;DHT22;26336;44.696;10.622;2024-01-15T07:19:38;3.70;99.90
40638;DHT22;26336;44.696;10.622;2024-01-15T07:22:43;3.70;99.90
40638;DHT22;26336;44.696;10.622;2024-01-15T07:25:46;3.70;99.90
40638;DHT22;26336;44.696;10.622;2024-01-15T07:28:50;3.70;99.90
40638;DHT22;26336;44.696;10.622;2024-01-15T07:31:54;3.70;99.90
40638;DHT22;26336;44.696;10.622;2024-01-15T07:34:58;3.70;99.90
40638;DHT22;26336;44.696;10.622;2024-01-15T07:38:03;3.70;99.90
40638;DHT22;26336;44.696;10.622;2024-01-15T07:41:07;3.60;99.90
40638;DHT22;26336;44.696;10.622;2024-01-15T07:44:11;3.70;99.90
40638;DHT22;26336;44.696;10.622;2024-01-15T07:47:15;3.60;99.90
40638;DHT22;26336;44.696;10.622;2024-01-15T07:50:19;3.70;99.90
40638;DHT22;26336;44.696;10.622;2024-01-15T07:53:23;3.70;99.90
40638;DHT22;26336;44.696;10.622;2024-01-15T07:56:27;3.70;99.90
40638;DHT22;26336;44.696;10.622;2024-01-15T07:59:32;3.70;99.90
40638;DHT22;26336;44.696;10.622;2024-01-15T08:02:35;3.70;99.90
40638;DHT22;26336;44.696;10.622;2024-01-15T08:05:39;3.70;99.90
40638;DHT22;26336;44.696;10.622;2024-01-15T08:08:44;3.70;99.90
40638;DHT22;26336;44.696;10.622;2024-01-15T08:11:48;3.60;99.90
40638;DHT22;26336;44.696;10.622;2024-01-15T08:14:55;3.70;99.90
40638;DHT22;26336;44.696;10.622;2024-01-15T08:17:59;3.70;99.90
40638;DHT22;26336;44.696;10.622;2024-01-15T08:21:04;3.80;99.90
40638;DHT22;26336;44.696;10.622;2024-01-15T08:24:08;3.90;99.90
40638;DHT22;26336;44.696;10.622;2024-01-15T08:27:12;3.90;99.90
40638;DHT22;26336;44.696;10.622;2024-01-15T08:30:16;3.90;99.90
40638;DHT22;26336;44.696;10.622;2024-01-15T08:33:20;4.00;99.90
40638;DHT22;26336;44.696;10.622;2024-01-15T08:36:24;4.00;99.90
40638;DHT22;26336;44.696;10.622;2024-01-15T08:39:28;4.00;99.90
40638;DHT22;26336;44.696;10.622;2024-01-15T08:42:32;4.00;99.90
40638;DHT22;26336;44.696;10.622;2024-01-15T08:45:36;4.00;99.90
40638;DHT22;26336;44.696;10.622;2024-01-15T08:48:40;4.10;99.90
40638;DHT22;26336;44.696;10.622;2024-01-15T08:51:45;4.10;99.90
40638;DHT22;26336;44.696;10.622;2024-01-15T08:54:48;4.10;99.90
40638;DHT22;26336;44.696;10.622;2024-01-15T08:57:52;4.10;99.90
40638;DHT22;26336;44.696;10.622;2024-01-15T09:00:56;4.10;99.90
40638;DHT22;26336;44.696;10.622;2024-01-15T09:04:00;4.20;99.90
40638;DHT22;26336;44.696;10.622;2024-01-15T09:07:04;4.20;99.90
40638;DHT22;26336;44.696;10.622;2024-01-15T09:10:09;4.30;99.90
40638;DHT22;26336;44.696;10.622;2024-01-15T09:13:12;4.30;99.90
40638;DHT22;26336;44.696;10.622;2024-01-15T09:16:16;4.40;99.90
40638;DHT22;26336;44.696;10.622;2024-01-15T09:19:20;4.40;99.90
40638;DHT22;26336;44.696;10.622;2024-01-15T09:22:24;4.40;99.90
40638;DHT22;26336;44.696;10.622;2024-01-15T09:25:28;4.50;99.90
40638;DHT22;26336;44.696;10.622;2024-01-15T09:28:32;4.50;99.90
40638;DHT22;26336;44.696;10.622;2024-01-15T09:31:40;4.50;99.90
40638;DHT22;26336;44.696;10.622;2024-01-15T09:34:48;4.50;99.90
40638;DHT22;26336;44.696;10.622;2024-01-15T09:37:52;4.50;99.90
40638;DHT22;26336;44.696;10.622;2024-01-15T09:40:56;4.50;99.90
40638;DHT22;26336;44.696;10.622;2024-01-15T09:44:01;4.60;99.90
40638;DHT22;26336;44.696;10.622;2024-01-15T09:47:06;4.60;99.90
40638;DHT22;26336;44.696;10.622;2024-01-15T09:50:09;4.70;99.90
40638;DHT22;26336;44.696;10.622;2024-01-15T09:53:15;4.70;99.90
40638;DHT22;26336;44.696;10.622;2024-01-15T09:56:19;4.80;99.90
40638;DHT22;26336;44.696;10.622;2024-01-15T09:59:24;4.80;99.90
40638;DHT22;26336;44.696;10.622;2024-01-15T10:02:29;4.90;99.90
40638;DHT22;26336;44.696;10.622;2024-01-15T10:05:34;5.00;99.90
40638;DHT22;26336;44.696;10.622;2024-01-15T10:08:37;5.00;99.90
40638;DHT22;26336;44.696;10.622;2024-01-15T10:11:43;5.00;99.90
40638;DHT22;26336;44.696;10.622;2024-01-15T10:14:48;5.10;99.90
40638;DHT22;26336;44.696;10.622;2024-01-15T10:17:53;5.10;99.90
40638;DHT22;26336;44.696;10.622;2024-01-15T10:21:03;5.20;99.90
40638;DHT22;26336;44.696;10.622;2024-01-15T10:24:07;5.40;99.90
40638;DHT22;26336;44.696;10.622;2024-01-15T10:27:11;5.40;99.90
40638;DHT22;26336;44.696;10.622;2024-01-15T10:30:15;5.60;99.90
40638;DHT22;26336;44.696;10.622;2024-01-15T10:33:23;5.70;99.90
40638;DHT22;26336;44.696;10.622;2024-01-15T10:36:30;5.90;99.90
40638;DHT22;26336;44.696;10.622;2024-01-15T10:39:35;6.00;99.90
40638;DHT22;26336;44.696;10.622;2024-01-15T10:42:40;6.10;99.90
40638;DHT22;26336;44.696;10.622;2024-01-15T10:45:46;6.20;99.90
40638;DHT22;26336;44.696;10.622;2024-01-15T10:48:50;6.30;99.90
40638;DHT22;26336;44.696;10.622;2024-01-15T10:51:54;6.40;99.90
40638;DHT22;26336;44.696;10.622;2024-01-15T10:54:59;6.50;99.90
40638;DHT22;26336;44.696;10.622;2024-01-15T10:58:04;6.50;99.90
40638;DHT22;26336;44.696;10.622;2024-01-15T11:01:08;6.60;99.90
40638;DHT22;26336;44.696;10.622;2024-01-15T11:04:12;6.60;99.90
40638;DHT22;26336;44.696;10.622;2024-01-15T11:07:17;6.70;99.90
40638;DHT22;26336;44.696;10.622;2024-01-15T11:10:45;6.80;99.90
40638;DHT22;26336;44.696;10.622;2024-01-15T11:13:50;6.90;99.90
40638;DHT22;26336;44.696;10.622;2024-01-15T11:16:59;6.90;99.90
40638;DHT22;26336;44.696;10.622;2024-01-15T11:20:06;6.90;99.90
40638;DHT22;26336;44.696;10.622;2024-01-15T11:23:10;7.00;99.90
40638;DHT22;26336;44.696;10.622;2024-01-15T11:26:45;7.10;99.90
40638;DHT22;26336;44.696;10.622;2024-01-15T11:30:03;7.10;99.90
40638;DHT22;26336;44.696;10.622;2024-01-15T11:33:34;7.10;99.90
40638;DHT22;26336;44.696;10.622;2024-01-15T11:40:02;7.30;99.90
40638;DHT22;26336;44.696;10.622;2024-01-15T11:43:08;7.30;99.90
40638;DHT22;26336;44.696;10.622;2024-01-15T11:46:13;7.40;99.90
40638;DHT22;26336;44.696;10.622;2024-01-15T11:53:00;7.40;99.90
40638;DHT22;26336;44.696;10.622;2024-01-15T11:56:14;7.30;99.90
40638;DHT22;26336;44.696;10.622;2024-01-15T11:59:19;7.40;99.90
40638;DHT22;26336;44.696;10.622;2024-01-15T12:02:23;7.50;99.90
40638;DHT22;26336;44.696;10.622;2024-01-15T12:05:27;7.60;99.90
40638;DHT22;26336;44.696;10.622;2024-01-15T12:08:32;7.60;99.90
40638;DHT22;26336;44.696;10.622;2024-01-15T12:11:37;7.60;99.90
40638;DHT22;26336;44.696;10.622;2024-01-15T12:14:42;7.60;99.90
40638;DHT22;26336;44.696;10.622;2024-01-15T12:17:46;7.70;99.90
40638;DHT22;26336;44.696;10.622;2024-01-15T12:20:54;7.70;99.90
40638;DHT22;26336;44.696;10.622;2024-01-15T12:23:58;7.70;99.90
40638;DHT22;26336;44.696;10.622;2024-01-15T12:27:03;7.80;99.90
40638;DHT22;26336;44.696;10.622;2024-01-15T12:30:10;7.70;99.90
40638;DHT22;26336;44.696;10.622;2024-01-15T12:33:14;7.80;99.90
40638;DHT22;26336;44.696;10.622;2024-01-15T12:36:21;7.80;99.90
40638;DHT22;26336;44.696;10.622;2024-01-15T12:39:25;7.90;99.90
40638;DHT22;26336;44.696;10.622;2024-01-15T12:42:29;7.90;99.90
40638;DHT22;26336;44.696;10.622;2024-01-15T12:45:33;7.90;99.90
40638;DHT22;26336;44.696;10.622;2024-01-15T12:48:39;7.90;99.90
40638;DHT22;26336;44.696;10.622;2024-01-15T12:51:43;7.80;99.90
40638;DHT22;26336;44.696;10.622;2024-01-15T12:54:58;7.80;99.90
40638;DHT22;26336;44.696;10.622;2024-01-15T12:58:06;7.90;99.90
40638;DHT22;26336;44.696;10.622;2024-01-15T13:01:13;7.90;99.90
40638;DHT22;26336;44.696;10.622;2024-01-15T13:04:23;7.90;99.90
40638;DHT22;26336;44.696;10.622;2024-01-15T13:07:28;7.90;99.90
40638;DHT22;26336;44.696;10.622;2024-01-15T13:10:32;7.90;99.90
40638;DHT22;26336;44.696;10.622;2024-01-15T13:13:36;7.90;99.90
40638;DHT22;26336;44.696;10.622;2024-01-15T13:16:40;7.90;99.90
40638;DHT22;26336;44.696;10.622;2024-01-15T13:19:45;7.90;99.90
40638;DHT22;26336;44.696;10.622;2024-01-15T13:22:49;7.90;99.90
40638;DHT22;26336;44.696;10.622;2024-01-15T13:25:53;8.00;99.90
40638;DHT22;26336;44.696;10.622;2024-01-15T13:29:05;7.90;99.90
40638;DHT22;26336;44.696;10.622;2024-01-15T13:32:11;7.90;99.90
40638;DHT22;26336;44.696;10.622;2024-01-15T13:35:16;7.90;99.90
40638;DHT22;26336;44.696;10.622;2024-01-15T13:38:20;7.90;99.90
40638;DHT22;26336;44.696;10.622;2024-01-15T13:41:24;8.00;99.90
40638;DHT22;26336;44.696;10.622;2024-01-15T13:44:30;8.00;99.90
40638;DHT22;26336;44.696;10.622;2024-01-15T13:47:34;8.00;99.90
40638;DHT22;26336;44.696;10.622;2024-01-15T13:50:38;8.00;99.90
40638;DHT22;26336;44.696;10.622;2024-01-15T13:53:42;8.10;99.90
40638;DHT22;26336;44.696;10.622;2024-01-15T13:56:46;8.10;99.90
40638;DHT22;26336;44.696;10.622;2024-01-15T13:59:50;8.10;99.90
40638;DHT22;26336;44.696;10.622;2024-01-15T14:02:54;8.00;99.90
40638;DHT22;26336;44.696;10.622;2024-01-15T14:05:58;8.00;99.90
40638;DHT22;26336;44.696;10.622;2024-01-15T14:09:02;7.90;99.90
40638;DHT22;26336;44.696;10.622;2024-01-15T14:12:08;7.80;99.90
40638;DHT22;26336;44.696;10.622;2024-01-15T14:15:12;7.80;99.90
40638;DHT22;26336;44.696;10.622;2024-01-15T14:18:19;7.80;99.90
40638;DHT22;26336;44.696;10.622;2024-01-15T14:21:23;7.90;99.90
40638;DHT22;26336;44.696;10.622;2024-01-15T14:24:27;7.90;99.90
40638;DHT22;26336;44.696;10.622;2024-01-15T14:27:30;7.90;99.90
40638;DHT22;26336;44.696;10.622;2024-01-15T14:30:36;7.90;99.90
40638;DHT22;26336;44.696;10.622;2024-01-15T14:33:40;8.00;99.90
40638;DHT22;26336;44.696;10.622;2024-01-15T14:36:44;8.00;99.90
40638;DHT22;26336;44.696;10.622;2024-01-15T14:39:49;8.00;99.90
40638;DHT22;26336;44.696;10.622;2024-01-15T14:42:53;8.10;99.90
40638;DHT22;26336;44.696;10.622;2024-01-15T14:45:57;8.10;99.90
40638;DHT22;26336;44.696;10.622;2024-01-15T14:49:01;8.00;99.90
40638;DHT22;26336;44.696;10.622;2024-01-15T14:52:05;8.10;99.90
40638;DHT22;26336;44.696;10.622;2024-01-15T14:55:10;8.10;99.90
40638;DHT22;26336;44.696;10.622;2024-01-15T14:58:13;8.10;99.90
40638;DHT22;26336;44.696;10.622;2024-01-15T15:01:18;8.10;99.90
40638;DHT22;26336;44.696;10.622;2024-01-15T15:04:22;8.10;99.90
40638;DHT22;26336;44.696;10.622;2024-01-15T15:07:26;8.00;99.90
40638;DHT22;26336;44.696;10.622;2024-01-15T15:10:30;8.00;99.90
40638;DHT22;26336;44.696;10.622;2024-01-15T15:13:34;7.90;99.90
40638;DHT22;26336;44.696;10.622;2024-01-15T15:16:38;7.80;99.90
40638;DHT22;26336;44.696;10.622;2024-01-15T15:19:42;7.80;99.90
40638;DHT22;26336;44.696;10.622;2024-01-15T15:22:47;7.80;99.90
40638;DHT22;26336;44.696;10.622;2024-01-15T15:25:51;7.80;99.90
40638;DHT22;26336;44.696;10.622;2024-01-15T15:28:55;7.80;99.90
40638;DHT22;26336;44.696;10.622;2024-01-15T15:31:59;7.90;99.90
40638;DHT22;26336;44.696;10.622;2024-01-15T15:35:03;7.90;99.90
40638;DHT22;26336;44.696;10.622;2024-01-15T15:38:08;7.90;99.90
40638;DHT22;26336;44.696;10.622;2024-01-15T15:41:11;7.90;99.90
40638;DHT22;26336;44.696;10.622;2024-01-15T15:44:16;7.90;99.90
40638;DHT22;26336;44.696;10.622;2024-01-15T15:47:20;7.70;99.90
40638;DHT22;26336;44.696;10.622;2024-01-15T15:50:25;7.60;99.90
40638;DHT22;26336;44.696;10.622;2024-01-15T15:53:29;7.50;99.90
40638;DHT22;26336;44.696;10.622;2024-01-15T15:56:34;7.50;99.90
40638;DHT22;26336;44.696;10.622;2024-01-15T15:59:41;7.50;99.90
40638;DHT22;26336;44.696;10.622;2024-01-15T16:02:45;7.50;99.90
40638;DHT22;26336;44.696;10.622;2024-01-15T16:05:50;7.40;99.90
40638;DHT22;26336;44.696;10.622;2024-01-15T16:08:54;7.40;99.90
40638;DHT22;26336;44.696;10.622;2024-01-15T16:11:58;7.40;99.90
40638;DHT22;26336;44.696;10.622;2024-01-15T16:15:02;7.40;99.90
40638;DHT22;26336;44.696;10.622;2024-01-15T16:18:08;7.30;99.90
40638;DHT22;26336;44.696;10.622;2024-01-15T16:21:30;7.20;99.90
40638;DHT22;26336;44.696;10.622;2024-01-15T16:25:12;7.20;99.90
40638;DHT22;26336;44.696;10.622;2024-01-15T16:28:37;7.10;99.90
40638;DHT22;26336;44.696;10.622;2024-01-15T16:31:41;7.10;99.90
40638;DHT22;26336;44.696;10.622;2024-01-15T16:34:48;7.00;99.90
40638;DHT22;26336;44.696;10.622;2024-01-15T16:37:52;6.80;99.90
40638;DHT22;26336;44.696;10.622;2024-01-15T16:40:57;6.80;99.90
40638;DHT22;26336;44.696;10.622;2024-01-15T16:44:01;6.70;99.90
40638;DHT22;26336;44.696;10.622;2024-01-15T16:47:06;6.70;99.90
40638;DHT22;26336;44.696;10.622;2024-01-15T16:50:10;6.80;99.90
40638;DHT22;26336;44.696;10.622;2024-01-15T16:53:14;6.80;99.90
40638;DHT22;26336;44.696;10.622;2024-01-15T16:56:19;6.70;99.90
40638;DHT22;26336;44.696;10.622;2024-01-15T16:59:23;6.70;99.90
40638;DHT22;26336;44.696;10.622;2024-01-15T17:02:27;6.60;99.90
40638;DHT22;26336;44.696;10.622;2024-01-15T17:05:31;6.60;99.90
40638;DHT22;26336;44.696;10.622;2024-01-15T17:08:35;6.50;99.90
40638;DHT22;26336;44.696;10.622;2024-01-15T17:11:39;6.50;99.90
40638;DHT22;26336;44.696;10.622;2024-01-15T17:14:43;6.50;99.90
40638;DHT22;26336;44.696;10.622;2024-01-15T17:17:47;6.50;99.90
40638;DHT22;26336;44.696;10.622;2024-01-15T17:20:51;6.40;99.90
40638;DHT22;26336;44.696;10.622;2024-01-15T17:23:55;6.40;99.90
40638;DHT22;26336;44.696;10.622;2024-01-15T17:26:59;6.40;99.90
40638;DHT22;26336;44.696;10.622;2024-01-15T17:30:04;6.30;99.90
40638;DHT22;26336;44.696;10.622;2024-01-15T17:33:08;6.30;99.90
40638;DHT22;26336;44.696;10.622;2024-01-15T17:36:13;6.30;99.90
40638;DHT22;26336;44.696;10.622;2024-01-15T17:39:17;6.20;99.90
40638;DHT22;26336;44.696;10.622;2024-01-15T17:42:21;6.20;99.90
40638;DHT22;26336;44.696;10.622;2024-01-15T17:45:26;6.20;99.90
40638;DHT22;26336;44.696;10.622;2024-01-15T17:48:33;6.20;99.90
40638;DHT22;26336;44.696;10.622;2024-01-15T17:51:37;6.20;99.90
40638;DHT22;26336;44.696;10.622;2024-01-15T17:54:41;6.20;99.90
40638;DHT22;26336;44.696;10.622;2024-01-15T17:57:45;6.20;99.90
40638;DHT22;26336;44.696;10.622;2024-01-15T18:00:49;6.10;99.90
40638;DHT22;26336;44.696;10.622;2024-01-15T18:03:54;6.10;99.90
40638;DHT22;26336;44.696;10.622;2024-01-15T18:07:03;6.00;99.90
40638;DHT22;26336;44.696;10.622;2024-01-15T18:10:07;5.90;99.90
40638;DHT22;26336;44.696;10.622;2024-01-15T18:13:12;5.90;99.90
40638;DHT22;26336;44.696;10.622;2024-01-15T18:16:16;5.90;99.90
40638;DHT22;26336;44.696;10.622;2024-01-15T18:19:25;5.90;99.90
40638;DHT22;26336;44.696;10.622;2024-01-15T18:22:30;5.80;99.90
40638;DHT22;26336;44.696;10.622;2024-01-15T18:25:34;5.80;99.90
40638;DHT22;26336;44.696;10.622;2024-01-15T18:28:38;5.80;99.90
40638;DHT22;26336;44.696;10.622;2024-01-15T18:31:42;5.80;99.90
40638;DHT22;26336;44.696;10.622;2024-01-15T18:34:46;5.70;99.90
40638;DHT22;26336;44.696;10.622;2024-01-15T18:37:50;5.70;99.90
40638;DHT22;26336;44.696;10.622;2024-01-15T18:40:54;5.70;99.90
40638;DHT22;26336;44.696;10.622;2024-01-15T18:43:58;5.70;99.90
40638;DHT22;26336;44.696;10.622;2024-01-15T18:47:03;5.70;99.90
40638;DHT22;26336;44.696;10.622;2024-01-15T18:50:07;5.60;99.90
40638;DHT22;26336;44.696;10.622;2024-01-15T18:53:12;5.60;99.90
40638;DHT22;26336;44.696;10.622;2024-01-15T18:56:23;5.60;99.90
40638;DHT22;26336;44.696;10.622;2024-01-15T18:59:27;5.60;99.90
40638;DHT22;26336;44.696;10.622;2024-01-15T19:02:30;5.60;99.90
40638;DHT22;26336;44.696;10.622;2024-01-15T19:05:34;5.60;99.90
40638;DHT22;26336;44.696;10.622;2024-01-15T19:08:41;5.50;99.90
40638;DHT22;26336;44.696;10.622;2024-01-15T19:11:45;5.50;99.90
40638;DHT22;26336;44.696;10.622;2024-01-15T19:14:50;5.40;99.90
40638;DHT22;26336;44.696;10.622;2024-01-15T19:17:55;5.40;99.90
40638;DHT22;26336;44.696;10.622;2024-01-15T19:20:59;5.40;99.90
40638;DHT22;26336;44.696;10.622;2024-01-15T19:24:04;5.40;99.90
40638;DHT22;26336;44.696;10.622;2024-01-15T19:27:08;5.30;99.90
40638;DHT22;26336;44.696;10.622;2024-01-15T19:30:12;5.30;99.90
40638;DHT22;26336;44.696;10.622;2024-01-15T19:33:18;5.30;99.90